Time;durP1;ratioP1;P1;durP2;ratioP2;P2;SDS_P1;SDS_P2;PMS_P1;PMS_P2;Temp;Humidity;BMP_temperature;BMP_pressure;BME280_temperature;BME280_humidity;BME280_pressure;Samples;Min_cycle;Max_cycle;Signal;HPM_P1;HPM_P2
2023/05/10 00:00:33;;;;;;;1.35;0.30;;;14.40;99.90;;;;;;5000665;28;20042;-52
2023/05/10 00:02:59;;;;;;;2.45;0.30;;;14.40;99.90;;;;;;5007052;28;20045;-51
2023/05/10 00:05:26;;;;;;;0.50;0.40;;;14.20;99.90;;;;;;5001920;28;20042;-53
2023/05/10 00:07:53;;;;;;;0.25;0.25;;;14.20;99.90;;;;;;4992888;28;20080;-55
2023/05/10 00:10:19;;;;;;;0.43;0.35;;;14.10;99.90;;;;;;4992736;28;20058;-54
2023/05/10 00:12:46;;;;;;;0.40;0.30;;;14.20;99.90;;;;;;5012507;28;20107;-53
2023/05/10 00:15:13;;;;;;;0.50;0.35;;;13.90;99.90;;;;;;4995644;28;20093;-52
2023/05/10 00:17:40;;;;;;;1.58;0.28;;;13.80;99.90;;;;;;4993161;28;20073;-56
2023/05/10 00:20:07;;;;;;;0.95;0.40;;;13.80;99.90;;;;;;5007284;28;20120;-56
2023/05/10 00:22:34;;;;;;;2.28;0.30;;;13.70;99.90;;;;;;5002906;28;20076;-54
2023/05/10 00:25:01;;;;;;;1.65;0.60;;;13.60;99.90;;;;;;5012268;28;20099;-56
2023/05/10 00:27:27;;;;;;;0.55;0.45;;;13.60;99.90;;;;;;4993077;28;20104;-52
2023/05/10 00:29:54;;;;;;;4.05;0.50;;;13.50;99.90;;;;;;4983846;28;20053;-52
2023/05/10 00:32:21;;;;;;;0.90;0.40;;;13.70;99.90;;;;;;5004869;28;20077;-55
2023/05/10 00:34:48;;;;;;;0.60;0.50;;;13.50;99.90;;;;;;4982449;28;20038;-55
2023/05/10 00:37:15;;;;;;;1.27;0.50;;;13.50;99.90;;;;;;4999994;28;20046;-55
2023/05/10 00:39:41;;;;;;;3.67;0.50;;;13.50;99.90;;;;;;4982841;28;20090;-56
2023/05/10 00:42:08;;;;;;;0.80;0.63;;;13.40;99.90;;;;;;4981367;28;20041;-55
2023/05/10 00:44:35;;;;;;;1.85;0.60;;;13.40;99.90;;;;;;4991228;28;20133;-55
2023/05/10 00:47:02;;;;;;;1.13;0.77;;;13.40;99.90;;;;;;4982613;28;20478;-53
2023/05/10 00:49:29;;;;;;;1.10;0.70;;;13.40;99.90;;;;;;4981340;28;20054;-53
2023/05/10 00:51:56;;;;;;;1.63;0.55;;;13.40;99.90;;;;;;4988197;28;20100;-54
2023/05/10 00:54:23;;;;;;;0.60;0.60;;;13.40;99.90;;;;;;4990386;28;20050;-56
2023/05/10 00:56:50;;;;;;;;;;;13.40;99.90;;;;;;4983182;28;20513;-54
2023/05/10 00:59:18;;;;;;;0.55;0.50;;;13.40;99.90;;;;;;4990648;28;19968;-55
2023/05/10 01:01:45;;;;;;;;;;;13.30;99.90;;;;;;4984148;28;20526;-53
2023/05/10 01:04:13;;;;;;;0.60;0.38;;;13.40;99.90;;;;;;4993479;28;19929;-56
2023/05/10 01:06:41;;;;;;;0.77;0.50;;;13.40;99.90;;;;;;4974151;28;20069;-55
2023/05/10 01:09:08;;;;;;;2.05;0.50;;;13.40;99.90;;;;;;4990488;28;20049;-53
2023/05/10 01:11:37;;;;;;;1.55;0.55;;;13.40;99.90;;;;;;4990250;28;20057;-52
2023/05/10 01:14:05;;;;;;;0.80;0.40;;;13.30;99.90;;;;;;4992240;28;20085;-56
2023/05/10 01:16:37;;;;;;;0.73;0.47;;;13.30;99.90;;;;;;4991440;28;20608;-55
2023/05/10 01:19:23;;;;;;;0.90;0.60;;;13.30;99.90;;;;;;5007137;28;20080;-54
2023/05/10 01:22:04;;;;;;;1.75;0.60;;;13.40;99.90;;;;;;4990271;28;20038;-55
2023/05/10 01:24:51;;;;;;;0.73;0.63;;;13.40;99.90;;;;;;4990275;28;20057;-53
2023/05/10 01:27:52;;;;;;;0.73;0.50;;;13.40;99.90;;;;;;4989381;28;20399;-55
2023/05/10 01:30:37;;;;;;;0.77;0.50;;;13.30;99.90;;;;;;4990860;28;20073;-53
2023/05/10 01:33:16;;;;;;;6.75;0.82;;;13.40;99.90;;;;;;4997801;28;20042;-56
2023/05/10 01:36:09;;;;;;;4.78;0.68;;;13.40;99.90;;;;;;4993123;28;20046;-56
2023/05/10 01:38:57;;;;;;;3.17;0.55;;;13.30;99.90;;;;;;4982742;28;20085;-53
2023/05/10 01:41:38;;;;;;;0.77;0.73;;;13.30;99.90;;;;;;4990946;28;20100;-54
2023/05/10 01:44:28;;;;;;;3.20;0.75;;;13.20;99.90;;;;;;4992022;28;20042;-52
2023/05/10 01:47:07;;;;;;;2.83;0.80;;;13.20;99.90;;;;;;4997908;28;20053;-53
2023/05/10 01:49:47;;;;;;;3.85;0.80;;;13.20;99.90;;;;;;5002408;28;20073;-56
2023/05/10 01:52:19;;;;;;;2.38;0.70;;;13.10;99.90;;;;;;5006920;28;20042;-55
2023/05/10 01:54:53;;;;;;;2.30;0.90;;;13.10;99.90;;;;;;4989136;28;20061;-55
2023/05/10 01:57:25;;;;;;;3.65;0.80;;;13.10;99.90;;;;;;5006020;28;20097;-55
2023/05/10 01:59:53;;;;;;;0.50;0.50;;;13.10;99.90;;;;;;4982499;28;20088;-53
2023/05/10 02:02:21;;;;;;;2.03;0.85;;;13.10;99.90;;;;;;4993777;28;20050;-52
2023/05/10 02:04:49;;;;;;;0.90;0.60;;;13.00;99.90;;;;;;4982138;28;20517;-52
2023/05/10 02:07:17;;;;;;;1.83;0.73;;;13.10;99.90;;;;;;4998190;28;20057;-54
2023/05/10 02:09:47;;;;;;;5.00;0.90;;;13.10;99.90;;;;;;4981546;28;20560;-55
2023/05/10 02:12:16;;;;;;;3.95;0.90;;;13.00;99.90;;;;;;4980873;28;20046;-55
2023/05/10 02:14:44;;;;;;;1.10;0.90;;;13.10;99.90;;;;;;4977606;28;20268;-52
2023/05/10 02:17:12;;;;;;;0.73;0.70;;;13.10;99.90;;;;;;4993018;28;20045;-52
2023/05/10 02:19:41;;;;;;;0.80;0.80;;;13.10;99.90;;;;;;4994040;28;20057;-53
2023/05/10 02:22:09;;;;;;;1.15;1.00;;;13.10;99.90;;;;;;4994740;28;20042;-54
2023/05/10 02:24:36;;;;;;;1.92;1.15;;;13.00;99.90;;;;;;4991863;28;20502;-55
2023/05/10 02:27:04;;;;;;;2.45;0.88;;;13.00;99.90;;;;;;5014559;28;20034;-54
2023/05/10 02:29:32;;;;;;;0.80;0.75;;;13.10;99.90;;;;;;4995015;28;20042;-56
2023/05/10 02:32:00;;;;;;;1.55;0.70;;;13.10;99.90;;;;;;4985002;28;20085;-55
2023/05/10 02:34:27;;;;;;;2.40;0.77;;;13.10;99.90;;;;;;4978154;28;20051;-53
2023/05/10 02:36:56;;;;;;;1.35;0.80;;;13.10;99.90;;;;;;5014636;28;20512;-53
2023/05/10 02:39:24;;;;;;;0.80;0.80;;;13.10;99.90;;;;;;4997366;28;20042;-54
2023/05/10 02:41:53;;;;;;;3.22;0.60;;;13.10;99.90;;;;;;4984547;28;20097;-56
2023/05/10 02:44:21;;;;;;;0.43;0.40;;;13.10;99.90;;;;;;4992997;28;20058;-56
2023/05/10 02:46:48;;;;;;;1.70;0.68;;;13.10;99.90;;;;;;4994671;28;20074;-56
2023/05/10 02:49:15;;;;;;;4.82;0.77;;;13.10;99.90;;;;;;4994668;28;20042;-54
2023/05/10 02:51:47;;;;;;;;;;;13.10;99.90;;;;;;4988584;28;20054;-53
2023/05/10 02:54:24;;;;;;;1.08;0.70;;;13.10;99.90;;;;;;5005429;28;19929;-53
2023/05/10 02:56:57;;;;;;;0.60;0.60;;;13.00;99.90;;;;;;4987931;28;20125;-52
2023/05/10 02:59:24;;;;;;;1.85;0.82;;;13.00;99.90;;;;;;4991358;28;20034;-52
2023/05/10 03:01:51;;;;;;;1.67;0.90;;;13.10;99.90;;;;;;4981492;28;20097;-56
2023/05/10 03:04:18;;;;;;;1.88;1.10;;;13.10;99.90;;;;;;4992603;28;20046;-55
2023/05/10 03:06:45;;;;;;;2.80;1.02;;;13.10;99.90;;;;;;4995834;28;20048;-56
2023/05/10 03:09:15;;;;;;;2.90;0.90;;;13.10;99.90;;;;;;4981392;28;20142;-55
2023/05/10 03:12:05;;;;;;;4.05;1.00;;;13.10;99.90;;;;;;4995631;28;20111;-55
2023/05/10 03:14:48;;;;;;;5.28;0.98;;;13.10;99.90;;;;;;4994428;28;20133;-55
2023/05/10 03:17:25;;;;;;;3.70;0.98;;;13.10;99.90;;;;;;4991720;28;20042;-55
2023/05/10 03:19:57;;;;;;;3.03;0.85;;;13.00;99.90;;;;;;4983401;28;20042;-55
2023/05/10 03:22:30;;;;;;;2.92;1.15;;;13.10;99.90;;;;;;4991438;28;20038;-54
2023/05/10 03:24:58;;;;;;;0.95;0.73;;;13.10;99.90;;;;;;4986739;28;20049;-54
2023/05/10 03:27:29;;;;;;;3.63;1.00;;;13.10;99.90;;;;;;4983284;28;20097;-55
2023/05/10 03:29:56;;;;;;;5.53;1.00;;;13.10;99.90;;;;;;4983023;28;20042;-53
2023/05/10 03:32:24;;;;;;;33.88;2.70;;;13.10;99.90;;;;;;4992535;28;20122;-54
2023/05/10 03:34:50;;;;;;;1.65;0.90;;;13.00;99.90;;;;;;4981933;28;20533;-54
2023/05/10 03:37:17;;;;;;;4.50;1.25;;;13.10;99.90;;;;;;4993124;28;20056;-53
2023/05/10 03:39:44;;;;;;;2.72;1.15;;;13.00;99.90;;;;;;4993252;28;20053;-53
2023/05/10 03:42:11;;;;;;;1.90;1.13;;;13.00;99.90;;;;;;4977363;28;20125;-53
2023/05/10 03:44:41;;;;;;;2.33;1.00;;;13.00;99.90;;;;;;4983996;28;20050;-56
2023/05/10 03:47:08;;;;;;;3.80;1.17;;;13.00;99.90;;;;;;4985304;28;20466;-55
2023/05/10 03:49:35;;;;;;;2.05;1.08;;;12.90;99.90;;;;;;4989073;28;20487;-54
2023/05/10 03:52:03;;;;;;;1.98;1.15;;;13.00;99.90;;;;;;4981090;28;20053;-56
2023/05/10 03:54:30;;;;;;;4.38;0.63;;;12.90;99.90;;;;;;4993966;28;20039;-53
2023/05/10 03:56:58;;;;;;;4.50;0.90;;;12.90;99.90;;;;;;4983614;28;20126;-55
2023/05/10 03:59:25;;;;;;;2.38;0.50;;;12.90;99.90;;;;;;4983618;28;20046;-55
2023/05/10 04:01:51;;;;;;;0.52;0.40;;;12.90;99.90;;;;;;4980638;28;20095;-52
2023/05/10 04:04:20;;;;;;;1.60;0.70;;;12.80;99.90;;;;;;4983445;28;20116;-55
2023/05/10 04:06:49;;;;;;;0.40;0.40;;;12.80;99.90;;;;;;4983677;28;20499;-53
2023/05/10 04:09:16;;;;;;;2.25;0.85;;;12.90;99.90;;;;;;4982481;28;20042;-54
2023/05/10 04:11:43;;;;;;;0.80;0.50;;;12.90;99.90;;;;;;4992274;28;20099;-56
2023/05/10 04:14:10;;;;;;;2.63;0.60;;;12.90;99.90;;;;;;4992390;28;20439;-52
2023/05/10 04:16:37;;;;;;;4.97;0.40;;;12.90;99.90;;;;;;4992402;28;20042;-55
2023/05/10 04:19:04;;;;;;;1.98;0.40;;;12.90;99.90;;;;;;4994148;28;20118;-54
2023/05/10 04:21:31;;;;;;;2.05;0.60;;;12.90;99.90;;;;;;4994328;28;20043;-55
2023/05/10 04:23:57;;;;;;;4.50;0.80;;;12.90;99.90;;;;;;5002751;28;20109;-55
2023/05/10 04:26:25;;;;;;;4.15;1.00;;;12.90;99.90;;;;;;4991734;28;20550;-55
2023/05/10 04:28:52;;;;;;;3.35;1.10;;;12.90;99.90;;;;;;4991717;28;20081;-53
2023/05/10 04:31:18;;;;;;;1.88;1.48;;;13.00;99.90;;;;;;4992025;28;20046;-53
2023/05/10 04:33:45;;;;;;;2.20;1.17;;;12.90;99.90;;;;;;4991440;28;20081;-52
2023/05/10 04:36:12;;;;;;;0.95;0.77;;;13.00;99.90;;;;;;4990955;28;20112;-54
2023/05/10 04:38:39;;;;;;;3.72;0.98;;;13.00;99.90;;;;;;4992263;28;20101;-55
2023/05/10 04:41:07;;;;;;;2.88;0.80;;;13.00;99.90;;;;;;4991790;28;20042;-53
2023/05/10 04:43:34;;;;;;;1.25;0.70;;;13.10;99.90;;;;;;4989672;28;20046;-54
2023/05/10 04:46:01;;;;;;;0.90;0.38;;;13.10;99.90;;;;;;4991732;28;20043;-52
2023/05/10 04:48:28;;;;;;;0.45;0.22;;;13.10;99.90;;;;;;4991996;28;20116;-54
2023/05/10 04:50:55;;;;;;;1.70;0.45;;;13.10;99.90;;;;;;4991739;28;20074;-52
2023/05/10 04:53:21;;;;;;;1.05;0.57;;;13.10;99.90;;;;;;4990042;28;20146;-53
2023/05/10 04:55:48;;;;;;;0.88;0.50;;;13.10;99.90;;;;;;4992064;28;20101;-57
2023/05/10 04:58:15;;;;;;;1.08;0.70;;;13.20;99.90;;;;;;4991208;28;20042;-53
2023/05/10 05:00:42;;;;;;;4.38;0.90;;;13.20;99.90;;;;;;4989886;28;20162;-57
2023/05/10 05:03:09;;;;;;;2.40;1.10;;;13.20;99.90;;;;;;5003286;28;20494;-55
2023/05/10 05:05:36;;;;;;;;;;;13.20;99.90;;;;;;4993881;28;20136;-51
2023/05/10 05:08:03;;;;;;;0.95;0.68;;;13.20;99.90;;;;;;4992281;28;19987;-52
2023/05/10 05:10:30;;;;;;;4.40;1.20;;;13.20;99.90;;;;;;5006793;28;20066;-55
2023/05/10 05:12:56;;;;;;;0.90;0.77;;;13.20;99.90;;;;;;4994719;28;20539;-54
2023/05/10 05:15:23;;;;;;;2.97;0.95;;;13.20;99.90;;;;;;4991725;28;20038;-52
2023/05/10 05:17:50;;;;;;;1.60;0.77;;;13.30;99.90;;;;;;4992756;28;20088;-53
2023/05/10 05:20:18;;;;;;;4.20;1.20;;;13.30;99.90;;;;;;5011045;28;20394;-54
2023/05/10 05:22:45;;;;;;;3.15;1.20;;;13.30;99.90;;;;;;4991062;28;20057;-52
2023/05/10 05:25:12;;;;;;;1.25;1.10;;;13.40;99.90;;;;;;5005117;28;20069;-51
2023/05/10 05:27:39;;;;;;;4.18;1.23;;;13.40;99.90;;;;;;5005102;28;20093;-53
2023/05/10 05:30:06;;;;;;;2.10;1.42;;;13.50;99.90;;;;;;5007146;28;20041;-56
2023/05/10 05:32:33;;;;;;;3.13;0.93;;;13.50;99.90;;;;;;5005572;28;20047;-54
2023/05/10 05:35:00;;;;;;;1.70;1.00;;;13.50;99.90;;;;;;4994809;28;20042;-52
2023/05/10 05:37:27;;;;;;;1.10;0.57;;;13.50;99.90;;;;;;5000966;28;20514;-56
2023/05/10 05:39:54;;;;;;;1.65;0.75;;;13.60;99.90;;;;;;5010333;28;20062;-54
2023/05/10 05:42:21;;;;;;;1.10;0.80;;;13.60;99.90;;;;;;4993716;28;20050;-54
2023/05/10 05:44:48;;;;;;;5.90;1.45;;;13.60;99.90;;;;;;4994639;28;20058;-52
2023/05/10 05:47:15;;;;;;;2.20;1.08;;;13.60;99.90;;;;;;4995316;28;20050;-56
2023/05/10 05:49:41;;;;;;;5.80;1.45;;;13.60;99.90;;;;;;4995162;28;20223;-55
2023/05/10 05:52:08;;;;;;;7.55;2.70;;;13.60;99.90;;;;;;4993745;28;20104;-55
2023/05/10 05:54:35;;;;;;;6.25;2.63;;;13.60;99.90;;;;;;5002754;28;20053;-55
2023/05/10 05:57:02;;;;;;;9.00;2.20;;;13.60;99.90;;;;;;5002032;28;20368;-55
2023/05/10 05:59:29;;;;;;;7.78;2.20;;;13.50;99.90;;;;;;4994471;28;20043;-52
2023/05/10 06:01:55;;;;;;;4.72;2.10;;;13.60;99.90;;;;;;4993795;28;20083;-55
2023/05/10 06:04:22;;;;;;;4.25;2.38;;;13.60;99.90;;;;;;4995147;28;20050;-53
2023/05/10 06:06:49;;;;;;;4.95;1.60;;;13.60;99.90;;;;;;4994918;28;20510;-52
2023/05/10 06:09:16;;;;;;;3.53;1.67;;;13.50;99.90;;;;;;4999528;28;20045;-53
2023/05/10 06:11:42;;;;;;;4.35;1.70;;;13.50;99.90;;;;;;5012143;28;20101;-51
2023/05/10 06:14:10;;;;;;;2.63;1.60;;;13.50;99.90;;;;;;4993967;28;20497;-53
2023/05/10 06:16:36;;;;;;;;;;;13.50;99.90;;;;;;4995139;28;20058;-54
2023/05/10 06:19:03;;;;;;;4.80;1.95;;;13.50;99.90;;;;;;5005271;28;19922;-56
2023/05/10 06:21:30;;;;;;;3.15;1.55;;;13.50;99.90;;;;;;5006086;28;20081;-52
2023/05/10 06:23:57;;;;;;;2.60;1.40;;;13.50;99.90;;;;;;4989075;28;20069;-56
2023/05/10 06:26:24;;;;;;;5.10;1.88;;;13.50;99.90;;;;;;5006187;28;20035;-54
2023/05/10 06:28:51;;;;;;;3.78;1.08;;;13.40;99.90;;;;;;4993225;28;20109;-53
2023/05/10 06:31:18;;;;;;;2.20;0.93;;;13.40;99.90;;;;;;4994070;28;20108;-55
2023/05/10 06:33:45;;;;;;;3.08;1.00;;;13.30;99.90;;;;;;5002850;28;20038;-53
2023/05/10 06:36:12;;;;;;;2.70;1.20;;;13.30;99.90;;;;;;5000386;28;20038;-54
2023/05/10 06:38:39;;;;;;;1.95;1.00;;;13.30;99.90;;;;;;5002028;28;20053;-55
2023/05/10 06:41:06;;;;;;;6.82;1.00;;;13.30;99.90;;;;;;5007966;28;20066;-55
2023/05/10 06:43:33;;;;;;;5.63;0.93;;;13.40;99.90;;;;;;5008886;28;20042;-56
2023/05/10 06:45:59;;;;;;;1.67;0.77;;;13.50;99.90;;;;;;5001838;28;20042;-56
2023/05/10 06:48:26;;;;;;;2.20;0.68;;;13.50;99.90;;;;;;4994220;28;20137;-52
2023/05/10 06:50:53;;;;;;;1.85;0.80;;;13.60;99.90;;;;;;4994940;28;20042;-54
2023/05/10 06:53:20;;;;;;;2.47;0.65;;;13.60;99.90;;;;;;5013554;28;20434;-56
2023/05/10 06:55:48;;;;;;;1.35;0.70;;;13.70;99.90;;;;;;4995097;28;20047;-53
2023/05/10 06:58:15;;;;;;;2.55;0.80;;;13.70;99.90;;;;;;5006650;28;20042;-54
2023/05/10 07:00:43;;;;;;;4.68;0.75;;;13.80;99.90;;;;;;5003387;28;20053;-56
2023/05/10 07:03:10;;;;;;;4.65;1.02;;;13.80;99.90;;;;;;4993184;28;20065;-55
2023/05/10 07:05:37;;;;;;;2.33;0.43;;;13.80;99.90;;;;;;4993258;28;20042;-53
2023/05/10 07:08:04;;;;;;;1.77;0.60;;;13.90;99.90;;;;;;4993970;28;20046;-53
2023/05/10 07:10:31;;;;;;;2.03;0.70;;;13.90;99.90;;;;;;4991900;28;20774;-56
2023/05/10 07:12:57;;;;;;;4.28;0.70;;;13.90;99.90;;;;;;4996977;28;20061;-55
2023/05/10 07:15:24;;;;;;;2.83;0.75;;;14.00;99.90;;;;;;4992856;28;20047;-56
2023/05/10 07:17:51;;;;;;;4.72;0.68;;;14.00;99.90;;;;;;4993066;28;20053;-53
2023/05/10 07:20:19;;;;;;;4.75;0.70;;;14.00;99.90;;;;;;4992416;28;20495;-55
2023/05/10 07:22:45;;;;;;;3.28;0.77;;;14.00;99.90;;;;;;4992893;28;20442;-57
2023/05/10 07:25:12;;;;;;;6.30;0.93;;;14.00;99.90;;;;;;4993401;28;20046;-53
2023/05/10 07:27:39;;;;;;;2.20;0.50;;;14.00;99.90;;;;;;4992565;28;20418;-57
2023/05/10 07:30:07;;;;;;;3.83;0.50;;;14.00;99.90;;;;;;5008696;28;20093;-55
2023/05/10 07:32:33;;;;;;;1.42;0.60;;;14.00;99.90;;;;;;4991762;28;20368;-54
2023/05/10 07:35:00;;;;;;;13.85;0.65;;;14.00;99.90;;;;;;4992157;28;20034;-57
2023/05/10 07:37:27;;;;;;;1.25;0.60;;;13.90;99.90;;;;;;4993016;28;20050;-56
2023/05/10 07:39:54;;;;;;;5.82;0.52;;;13.90;99.90;;;;;;4992145;28;20109;-55
2023/05/10 07:42:21;;;;;;;3.42;0.43;;;13.80;99.90;;;;;;4991316;28;20046;-57
2023/05/10 07:44:47;;;;;;;2.20;0.63;;;13.70;99.90;;;;;;5001951;28;20040;-52
2023/05/10 07:47:14;;;;;;;5.53;0.60;;;13.70;99.90;;;;;;5000043;28;20072;-52
2023/05/10 07:49:41;;;;;;;2.67;0.60;;;13.80;99.90;;;;;;4997230;28;20058;-55
2023/05/10 07:52:07;;;;;;;0.85;0.38;;;13.80;99.90;;;;;;4997067;28;20402;-56
2023/05/10 07:54:34;;;;;;;2.78;0.60;;;13.80;99.90;;;;;;5012136;28;20073;-53
2023/05/10 07:57:01;;;;;;;3.42;0.50;;;13.80;99.90;;;;;;4992818;28;20038;-54
2023/05/10 07:59:28;;;;;;;4.28;0.57;;;13.80;99.90;;;;;;4988151;28;20262;-54
2023/05/10 08:01:54;;;;;;;1.73;0.43;;;13.70;99.90;;;;;;5006932;28;20049;-56
2023/05/10 08:04:22;;;;;;;3.63;1.02;;;13.60;99.90;;;;;;5005163;28;20137;-56
2023/05/10 08:06:48;;;;;;;2.55;0.60;;;13.60;99.90;;;;;;5000305;28;20076;-56
2023/05/10 08:09:15;;;;;;;2.53;0.73;;;13.60;99.90;;;;;;5007092;28;20046;-53
2023/05/10 08:11:42;;;;;;;1.85;0.32;;;13.70;99.90;;;;;;4990973;28;20077;-55
2023/05/10 08:14:09;;;;;;;6.15;0.70;;;13.70;99.90;;;;;;4995165;28;20046;-52
2023/05/10 08:16:36;;;;;;;3.78;0.45;;;13.80;99.90;;;;;;5012220;28;20046;-55
2023/05/10 08:19:03;;;;;;;2.53;0.50;;;13.80;99.90;;;;;;5000129;28;20046;-56
2023/05/10 08:21:31;;;;;;;4.30;0.65;;;13.80;99.90;;;;;;4992012;28;20042;-53
2023/05/10 08:23:57;;;;;;;2.28;0.57;;;13.90;99.90;;;;;;5001212;28;20073;-54
2023/05/10 08:26:24;;;;;;;4.10;0.55;;;13.90;99.90;;;;;;5005825;28;20549;-54
2023/05/10 08:28:51;;;;;;;1.52;0.30;;;13.90;99.90;;;;;;4991934;28;20049;-56
2023/05/10 08:31:18;;;;;;;2.53;0.52;;;13.90;99.90;;;;;;4991763;28;20505;-53
2023/05/10 08:33:45;;;;;;;1.00;0.35;;;14.00;99.90;;;;;;4991568;28;20039;-53
2023/05/10 08:36:13;;;;;;;3.90;0.60;;;14.00;99.90;;;;;;4992388;28;20088;-53
2023/05/10 08:38:40;;;;;;;2.30;0.50;;;14.00;99.90;;;;;;4990496;28;20046;-53
2023/05/10 08:41:07;;;;;;;2.30;0.50;;;14.00;99.90;;;;;;5007581;28;20031;-56
2023/05/10 08:43:36;;;;;;;2.80;0.73;;;14.10;99.90;;;;;;4989639;28;20526;-56
2023/05/10 08:46:05;;;;;;;1.15;0.60;;;14.10;99.90;;;;;;4994504;28;20038;-52
2023/05/10 08:48:34;;;;;;;4.78;0.50;;;14.20;99.90;;;;;;4995733;28;20127;-55
2023/05/10 08:51:03;;;;;;;2.05;0.50;;;14.10;99.90;;;;;;5000933;28;20528;-55
2023/05/10 08:53:31;;;;;;;3.70;0.40;;;14.10;99.90;;;;;;5008447;28;20474;-55
2023/05/10 08:55:58;;;;;;;2.30;0.55;;;14.00;99.90;;;;;;5008099;28;20120;-55
2023/05/10 08:58:25;;;;;;;1.77;0.80;;;13.90;99.90;;;;;;4990759;28;20050;-56
2023/05/10 09:00:53;;;;;;;4.10;0.80;;;13.90;99.90;;;;;;4990157;28;20081;-56
2023/05/10 09:03:20;;;;;;;1.15;0.60;;;14.00;99.90;;;;;;4991397;28;20121;-52
2023/05/10 09:05:48;;;;;;;3.30;0.80;;;13.90;99.90;;;;;;4991667;28;20593;-53
2023/05/10 09:08:16;;;;;;;4.85;0.88;;;13.90;99.90;;;;;;4991956;28;20097;-55
2023/05/10 09:10:44;;;;;;;6.93;0.75;;;13.90;99.90;;;;;;5006447;28;20054;-56
2023/05/10 09:13:11;;;;;;;2.58;0.60;;;13.80;99.90;;;;;;4999157;28;20100;-56
2023/05/10 09:15:38;;;;;;;;;;;13.90;99.90;;;;;;4991842;28;20046;-54
2023/05/10 09:18:05;;;;;;;1.73;0.57;;;13.90;99.90;;;;;;4991050;28;19976;-53
2023/05/10 09:20:32;;;;;;;1.92;0.50;;;13.90;99.90;;;;;;4991381;28;20066;-56
2023/05/10 09:22:58;;;;;;;3.60;0.60;;;13.80;99.90;;;;;;4991430;28;20042;-56
2023/05/10 09:25:25;;;;;;;1.17;0.70;;;13.80;99.90;;;;;;4996497;28;20052;-55
2023/05/10 09:27:52;;;;;;;1.80;0.95;;;13.90;99.90;;;;;;5009562;28;20046;-56
2023/05/10 09:30:27;;;;;;;7.53;1.05;;;14.10;99.90;;;;;;4991004;28;20097;-52
2023/05/10 09:32:56;;;;;;;4.80;0.88;;;14.20;99.90;;;;;;5007252;28;20045;-54
2023/05/10 09:35:25;;;;;;;3.53;0.95;;;14.30;99.90;;;;;;5004872;28;20495;-56
2023/05/10 09:37:56;;;;;;;4.15;1.00;;;14.20;99.90;;;;;;4999882;28;20065;-54
2023/05/10 09:40:26;;;;;;;4.28;0.90;;;14.30;99.90;;;;;;5004828;28;20105;-54
2023/05/10 09:42:55;;;;;;;3.03;1.00;;;14.20;99.90;;;;;;4990731;28;20388;-55
2023/05/10 09:45:24;;;;;;;2.58;0.90;;;14.20;99.90;;;;;;5010847;28;20049;-56
2023/05/10 09:47:51;;;;;;;2.33;0.68;;;14.30;99.90;;;;;;4992632;28;20054;-52
2023/05/10 09:50:19;;;;;;;1.35;0.88;;;14.40;99.90;;;;;;4991257;28;20046;-53
2023/05/10 09:52:54;;;;;;;2.13;0.80;;;14.60;99.90;;;;;;4990450;28;20117;-57
2023/05/10 09:55:23;;;;;;;3.05;0.75;;;14.80;99.90;;;;;;4991303;28;20042;-55
2023/05/10 09:57:59;;;;;;;1.27;0.70;;;15.20;99.90;;;;;;4990585;28;20057;-54
2023/05/10 10:00:27;;;;;;;4.60;0.60;;;15.50;99.90;;;;;;4999050;28;20046;-53
2023/05/10 10:02:56;;;;;;;5.63;1.02;;;15.80;99.90;;;;;;5000894;28;20042;-53
2023/05/10 10:05:34;;;;;;;3.25;0.82;;;16.20;99.90;;;;;;4991128;28;20058;-56
2023/05/10 10:08:05;;;;;;;4.18;1.00;;;16.50;99.90;;;;;;5000311;28;20069;-54
2023/05/10 10:10:33;;;;;;;2.30;0.65;;;16.60;99.90;;;;;;5003993;28;20124;-53
2023/05/10 10:13:01;;;;;;;3.38;0.70;;;16.70;99.90;;;;;;4993901;28;20042;-56
2023/05/10 10:15:28;;;;;;;3.85;0.93;;;16.80;99.90;;;;;;4993764;28;20411;-55
2023/05/10 10:17:54;;;;;;;3.88;0.70;;;16.90;99.90;;;;;;5011966;28;20088;-56
2023/05/10 10:20:23;;;;;;;3.05;0.60;;;17.00;99.90;;;;;;5000573;28;20038;-55
2023/05/10 10:22:51;;;;;;;2.05;0.60;;;16.90;99.90;;;;;;4994492;28;20050;-55
2023/05/10 10:25:19;;;;;;;1.75;0.63;;;16.80;99.90;;;;;;4997363;28;20049;-52
2023/05/10 10:27:52;;;;;;;2.35;0.70;;;16.60;99.90;;;;;;5014002;28;20050;-55
2023/05/10 10:30:21;;;;;;;1.60;0.68;;;16.80;99.90;;;;;;4994012;28;20064;-52
2023/05/10 10:33:26;;;;;;;1.77;0.90;;;16.80;99.90;;;;;;4993478;28;20491;-54
2023/05/10 10:35:57;;;;;;;8.18;1.20;;;16.90;99.90;;;;;;4994143;28;20042;-52
2023/05/10 10:38:24;;;;;;;4.50;0.93;;;16.70;99.90;;;;;;4994420;28;20052;-54
2023/05/10 10:41:26;;;;;;;2.33;0.75;;;16.70;99.90;;;;;;4993086;28;20071;-52
2023/05/10 10:44:24;;;;;;;3.05;0.75;;;16.70;99.90;;;;;;5012764;28;20482;-53
2023/05/10 10:47:24;;;;;;;6.30;1.33;;;16.40;99.90;;;;;;5000517;28;20052;-54
2023/05/10 10:50:06;;;;;;;7.70;0.93;;;16.10;99.90;;;;;;5004212;28;20054;-57
2023/05/10 10:52:40;;;;;;;6.13;1.30;;;15.90;99.90;;;;;;4992366;28;20061;-56
2023/05/10 10:55:13;;;;;;;6.72;1.23;;;15.60;99.90;;;;;;5011556;28;20060;-54
2023/05/10 10:57:41;;;;;;;2.00;0.82;;;15.40;99.90;;;;;;4995905;28;20050;-55
2023/05/10 11:00:27;;;;;;;4.00;1.20;;;15.20;99.90;;;;;;5012355;28;20577;-54
2023/05/10 11:03:08;;;;;;;2.03;0.80;;;15.10;99.90;;;;;;4994153;28;20077;-54
2023/05/10 11:05:36;;;;;;;4.18;1.00;;;14.70;99.90;;;;;;5003460;28;20115;-53
2023/05/10 11:08:28;;;;;;;2.88;1.00;;;14.70;99.90;;;;;;5001879;28;20335;-53
2023/05/10 11:11:01;;;;;;;6.40;1.20;;;15.10;99.90;;;;;;4988363;28;20066;-52
2023/05/10 11:13:38;;;;;;;1.95;1.00;;;14.60;99.90;;;;;;4997531;28;20136;-56
2023/05/10 11:16:15;;;;;;;3.28;0.80;;;14.50;99.90;;;;;;5003167;28;20049;-54
2023/05/10 11:19:04;;;;;;;10.10;1.10;;;14.50;99.90;;;;;;4993627;28;20035;-56
2023/05/10 11:21:32;;;;;;;2.15;0.90;;;14.50;99.90;;;;;;4991340;28;20301;-55
2023/05/10 11:24:05;;;;;;;1.77;0.63;;;14.60;99.90;;;;;;5009528;28;20038;-55
2023/05/10 11:26:34;;;;;;;4.85;0.90;;;14.70;99.90;;;;;;4992427;28;20050;-52
2023/05/10 11:29:02;;;;;;;1.85;0.80;;;14.90;99.90;;;;;;4992751;28;20108;-53
2023/05/10 11:31:29;;;;;;;1.45;0.77;;;14.80;99.90;;;;;;4993048;28;20290;-53
2023/05/10 11:33:58;;;;;;;2.78;0.70;;;14.80;99.90;;;;;;4993304;28;20074;-55
2023/05/10 11:36:28;;;;;;;5.55;0.90;;;14.90;99.90;;;;;;4991666;28;20078;-55
2023/05/10 11:38:56;;;;;;;3.30;0.88;;;14.90;99.90;;;;;;5009898;28;20057;-56
2023/05/10 11:41:24;;;;;;;3.45;0.63;;;14.90;99.90;;;;;;4998846;28;20046;-57
2023/05/10 11:43:52;;;;;;;1.90;0.90;;;14.80;99.90;;;;;;4992940;28;20065;-56
2023/05/10 11:46:21;;;;;;;1.95;0.82;;;14.50;99.90;;;;;;4992395;28;20084;-56
2023/05/10 11:49:01;;;;;;;4.32;1.20;;;14.60;99.90;;;;;;4993134;28;20046;-53
2023/05/10 11:51:28;;;;;;;1.55;1.15;;;14.60;99.90;;;;;;4992627;28;20054;-53
2023/05/10 11:53:56;;;;;;;3.15;0.90;;;14.60;99.90;;;;;;5000531;28;20076;-54
2023/05/10 11:56:24;;;;;;;3.22;0.88;;;14.50;99.90;;;;;;5007996;28;20053;-53
2023/05/10 11:58:56;;;;;;;1.33;1.00;;;14.50;99.90;;;;;;4990981;28;20050;-54
2023/05/10 12:01:24;;;;;;;4.03;1.40;;;14.40;99.90;;;;;;5004039;28;20513;-54
2023/05/10 12:03:53;;;;;;;4.50;1.30;;;14.40;99.90;;;;;;5004677;28;20116;-56
2023/05/10 12:06:21;;;;;;;5.68;1.48;;;14.50;99.90;;;;;;4990814;28;20046;-55
2023/05/10 12:08:53;;;;;;;4.72;1.38;;;14.60;99.90;;;;;;5004115;28;20050;-54
2023/05/10 12:11:24;;;;;;;3.95;1.17;;;14.60;99.90;;;;;;5000264;28;20145;-57
2023/05/10 12:13:51;;;;;;;0.85;0.68;;;14.80;99.90;;;;;;4990403;28;20096;-55
2023/05/10 12:16:19;;;;;;;2.10;0.52;;;14.90;99.90;;;;;;5004101;28;20077;-52
2023/05/10 12:18:53;;;;;;;3.50;1.35;;;15.20;99.90;;;;;;4996355;28;20439;-55
2023/05/10 12:21:21;;;;;;;3.10;0.90;;;15.50;99.90;;;;;;4992099;28;20088;-53
2023/05/10 12:23:53;;;;;;;1.65;0.90;;;15.70;99.90;;;;;;4991810;28;20049;-56
2023/05/10 12:26:24;;;;;;;4.35;0.90;;;15.80;99.90;;;;;;4992424;28;20085;-54
2023/05/10 12:28:51;;;;;;;2.25;0.80;;;16.10;99.90;;;;;;4992355;28;20050;-54
2023/05/10 12:31:18;;;;;;;5.13;0.80;;;16.20;99.90;;;;;;4993928;28;20096;-55
2023/05/10 12:33:47;;;;;;;1.60;0.60;;;16.30;99.90;;;;;;5004735;28;20046;-56
2023/05/10 12:36:14;;;;;;;4.32;0.60;;;16.50;99.90;;;;;;4991812;28;20073;-54
2023/05/10 12:38:43;;;;;;;2.47;0.70;;;16.50;99.90;;;;;;4992174;28;20042;-54
2023/05/10 12:41:12;;;;;;;2.38;0.40;;;16.60;99.90;;;;;;5009969;28;20092;-52
2023/05/10 12:43:39;;;;;;;3.40;0.68;;;16.60;99.90;;;;;;4996156;28;20054;-52
2023/05/10 12:46:09;;;;;;;2.78;0.70;;;16.60;99.90;;;;;;5000572;28;20085;-53
2023/05/10 12:48:38;;;;;;;2.17;0.50;;;16.50;99.90;;;;;;5005401;28;20046;-55
2023/05/10 12:51:05;;;;;;;10.00;1.15;;;16.50;99.90;;;;;;4992688;28;20043;-55
2023/05/10 12:53:32;;;;;;;2.22;0.70;;;16.40;99.90;;;;;;5011542;28;20073;-55
2023/05/10 12:55:58;;;;;;;4.18;0.70;;;16.40;99.90;;;;;;4993045;28;20054;-56
2023/05/10 12:58:25;;;;;;;4.47;0.90;;;16.40;99.90;;;;;;5002777;28;20042;-56